Aérodrome :
LOGIN :

S'inscrire | Disclaimer

   EN    FR    IT 

 










Légende :    VFR   VFR Marginal   IFR   IFR Intensif   IFR Très Intensif
Visi : 
Plafond : 
>= 8 km
>= 3000ft
5 à 8 km
1000 à 3000 ft
1500m à 5 km
500 à 1000 ft
800 à 1500m
200 à 500 ft
< 800m
< 200 ft
Symboles :   Orages  Brouillard  Fortes neiges  Fortes précipitations  Vent > 20 kt
SIGMETs :   Divers  Orages  Givrage  Turbulence  Onde Orograph.  Cendres Volcan.







- Altitude de l'aérodrome : 459 ft
- Code IATA : CER
- Voir les cartes d'approche


LFRC - Cherbourg / Maupertus

DERNIER METAR :
  • 170730Z AUTO 28007KT 230V330 9999 SCT022 BKN060 18/12 Q1018 NOSIG

METARs EXPIRÉS :
  • 170700Z AUTO 25006KT 220V300 CAVOK 18/12 Q1018 NOSIG
  • 170630Z AUTO 26005KT 9999 FEW019 17/11 Q1018 NOSIG
  • 170600Z AUTO 25005KT CAVOK 16/11 Q1018 NOSIG
  • 170530Z AUTO 24005KT CAVOK 14/12 Q1018 NOSIG
  • 170500Z AUTO 23004KT CAVOK 12/10 Q1017

TAF TAF LFRC
Valide du 17 à 06h jusqu'au 17 à 15h UTC


170500Z 1706/1715 VRB05KT 9999 SCT040
BECMG 1709/1711 26010KT
Pas de NOTAMs connus pour ce terrain.



MET'MAP, la Météo Aéronautique d'un coup d'oeil ! - Copyright ORBIFLY Décembre 2007 - Disclaimer

ORBIFLY MET'MAP TEAM :

Programmation & Développement : Alexandra Zaïnal
Conception & Développement : Baudouin d'Aumeries
Co-Programmation & Développement : Marc-Olivier Méhu
Soutien technique & logistique : Manuel Goepfert

Contact : metmap@orbifly.com




SOURCES & CREDITS :

   NOAA